Ataq, Yemen

9:00 AM AST on September 19, 2014 (GMT +0300)
Ataq | Change Station
CLOSE
Current Station
Airport
Location: Ataq,
Elevation: 3501 ft
Nearby Weather Stations

Elev 3501 ft 14.52 °N, 46.85 °E | Updated 20 seconds ago

Clear
Clear
88 °F
Feels Like 88 °F
N
6
Wind Variable Wind from West

Today
High -- | Low -- °F
--% Chance of Precip.
Yesterday
High -- | Low -- °F
Precip. -- in
5:41 AM 5:51 PM
Waning Crescent, 21% visible
Pressure 30.06 in
Visibility -9999.0 miles
Clouds
Dew Point 46 °F
Humidity 24%
Rainfall 0.00 in
Snow Depth Not available.
UV Not available.
Pollen Not available.
Air Quality Not available.
Flu Activity Not available.
METAR OYAT 190600Z 27005KT CAVOK 31/08 Q1018

More Conditions Fewer Conditions

Pressure 30.06 in
Visibility -9999.0 miles
Clouds
Dew Point 46 °F
Humidity 24%
Rainfall 0.00 in
Snow Depth Not available.
UV Not available.
Pollen Not available.
Air Quality Not available.
Flu Activity Not available.
METAR OYAT 190600Z 27005KT CAVOK 31/08 Q1018

More Conditions Fewer Conditions

10-Day Weather Forecast

Almanac

Astronomy

Sep. 19, 2014 Rise Set
Actual Time 5:41 AM AST 5:51 PM AST
Civil Twilight 5:20 AM AST 6:12 PM AST
Nautical Twilight 4:55 AM AST 6:37 PM AST
Astronomical Twilight 4:30 AM AST 7:02 PM AST
Moon 1:40 AM AST 2:35 PM AST
Length of Visible Light 12h 52m
Length of Day
12h 09m
Tomorrow will be 0m 49s shorter.
Waning Crescent, 21% of the Moon is Illuminated
Today
Waning Crescent
Sep 24
New
Oct 1
First Quarter
Oct 8
Full
Oct 15
Last Quarter

Yesterday's Extremes

Country Highs Country Lows

Community

WunderPhotos

Upload Photos

1,754,575 photos uploaded!

Nearby

Snow Depth

Not available.

Earthquake Activity

City Distance Mag. Time & Date
No recent earthquake activity has been reported nearby.
Minimum magnitude displayed is 2.5.

Coastal Water Temperatures

Place Temperature
No Stations Reporting

Nearby Weather Stations